Time;durP1;ratioP1;P1;durP2;ratioP2;P2;SDS_P1;SDS_P2;PMS_P1;PMS_P2;Temp;Humidity;BMP_temperature;BMP_pressure;BME280_temperature;BME280_humidity;BME280_pressure;Samples;Min_cycle;Max_cycle;Signal;HPM_P1;HPM_P2
2023/10/29 00:01:48;;;;;;;2.95;1.98;;;14.10;99.90;;;;;;4974237;28;20026;-37
2023/10/29 00:04:13;;;;;;;3.53;1.80;;;14.10;99.90;;;;;;4974199;28;20481;-37
2023/10/29 00:06:39;;;;;;;4.07;1.90;;;14.10;99.90;;;;;;4973992;28;20042;-37
2023/10/29 00:09:06;;;;;;;3.47;2.10;;;14.10;99.90;;;;;;4974114;28;20136;-37
2023/10/29 00:11:31;;;;;;;3.42;2.05;;;14.00;99.90;;;;;;4973888;28;20034;-37
2023/10/29 00:13:58;;;;;;;3.65;2.00;;;14.10;99.90;;;;;;4974219;28;20027;-37
2023/10/29 00:16:23;;;;;;;4.45;1.90;;;14.10;99.90;;;;;;4973836;28;20109;-37
2023/10/29 00:18:49;;;;;;;3.67;2.25;;;14.00;99.90;;;;;;4973608;28;20074;-37
2023/10/29 00:21:14;;;;;;;3.03;1.67;;;14.00;99.90;;;;;;4973759;28;20498;-37
2023/10/29 00:23:40;;;;;;;3.30;1.90;;;14.00;99.90;;;;;;4973733;28;20033;-37
2023/10/29 00:26:06;;;;;;;1.95;1.45;;;14.00;99.90;;;;;;4974036;28;20058;-37
2023/10/29 00:28:31;;;;;;;3.92;2.08;;;14.00;99.90;;;;;;4973849;28;20019;-37
2023/10/29 00:30:57;;;;;;;4.40;2.28;;;14.00;99.90;;;;;;4973655;28;20023;-37
2023/10/29 00:33:24;;;;;;;2.38;1.80;;;14.00;99.90;;;;;;4973659;28;20098;-37
2023/10/29 00:35:49;;;;;;;4.18;1.80;;;14.00;99.90;;;;;;4973536;28;20031;-37
2023/10/29 00:38:15;;;;;;;5.53;1.80;;;14.00;99.90;;;;;;4973845;28;20042;-37
2023/10/29 00:40:41;;;;;;;3.97;1.95;;;14.00;99.90;;;;;;4973361;28;20065;-37
2023/10/29 00:43:06;;;;;;;3.75;2.15;;;14.00;99.90;;;;;;4973320;28;20062;-37
2023/10/29 00:45:33;;;;;;;3.80;2.05;;;14.00;99.90;;;;;;4973303;28;20026;-37
2023/10/29 00:48:00;;;;;;;2.40;1.60;;;14.00;99.90;;;;;;4973128;28;20039;-37
2023/10/29 00:50:26;;;;;;;2.10;1.55;;;14.00;99.90;;;;;;4973315;28;20023;-37
2023/10/29 00:52:51;;;;;;;4.40;1.98;;;14.00;99.90;;;;;;4973270;28;20023;-37
2023/10/29 00:55:18;;;;;;;3.10;1.70;;;14.00;99.90;;;;;;4973027;28;20041;-37
2023/10/29 00:57:44;;;;;;;3.08;1.40;;;14.00;99.90;;;;;;4973092;28;20034;-37
2023/10/29 01:00:11;;;;;;;3.75;1.90;;;14.00;99.90;;;;;;4973249;28;20047;-37
2023/10/29 01:02:37;;;;;;;3.22;1.92;;;14.00;99.90;;;;;;4973033;28;20029;-36
2023/10/29 01:05:05;;;;;;;6.00;1.90;;;14.00;99.90;;;;;;4972996;28;20030;-37
2023/10/29 01:07:31;;;;;;;3.78;1.63;;;14.00;99.90;;;;;;4972948;28;20026;-37
2023/10/29 01:09:59;;;;;;;3.35;1.50;;;14.00;99.90;;;;;;4973000;28;20031;-37
2023/10/29 01:12:27;;;;;;;3.05;1.55;;;14.00;99.90;;;;;;4972996;28;20169;-37
2023/10/29 01:14:53;;;;;;;2.85;1.92;;;14.00;99.90;;;;;;4972876;28;20026;-37
2023/10/29 01:17:21;;;;;;;3.80;1.85;;;14.00;99.90;;;;;;4972912;28;20570;-37
2023/10/29 01:19:46;;;;;;;4.00;1.77;;;14.00;99.90;;;;;;4972863;28;20027;-37
2023/10/29 01:22:12;;;;;;;2.03;1.60;;;14.00;99.90;;;;;;4972721;28;20366;-37
2023/10/29 01:24:39;;;;;;;4.65;1.60;;;14.00;99.90;;;;;;4972734;28;20484;-37
2023/10/29 01:27:05;;;;;;;2.95;1.90;;;14.00;99.90;;;;;;4972708;28;20033;-37
2023/10/29 01:29:30;;;;;;;3.65;1.70;;;14.00;99.90;;;;;;4972593;28;20023;-37
2023/10/29 01:31:56;;;;;;;2.70;1.73;;;14.00;99.90;;;;;;4972137;28;20058;-37
2023/10/29 01:34:22;;;;;;;2.85;1.60;;;14.00;99.90;;;;;;4972664;28;20530;-37
2023/10/29 01:36:48;;;;;;;3.65;1.80;;;14.00;99.90;;;;;;4972490;28;20030;-37
2023/10/29 01:39:13;;;;;;;3.58;1.70;;;14.00;99.90;;;;;;4972742;28;20030;-37
2023/10/29 01:41:39;;;;;;;3.25;1.70;;;14.00;99.90;;;;;;4972657;28;20065;-37
2023/10/29 01:44:05;;;;;;;2.92;1.77;;;14.00;99.90;;;;;;4972518;28;20034;-37
2023/10/29 01:46:31;;;;;;;2.55;1.58;;;14.00;99.90;;;;;;4972416;28;20038;-37
2023/10/29 01:48:56;;;;;;;2.53;1.50;;;14.00;99.90;;;;;;4972969;28;20054;-37
2023/10/29 01:51:22;;;;;;;3.13;1.85;;;14.00;99.90;;;;;;4972525;28;20106;-37
2023/10/29 01:53:47;;;;;;;2.60;1.42;;;14.00;99.90;;;;;;4973536;28;20049;-37
2023/10/29 01:56:13;;;;;;;2.67;1.67;;;14.00;99.90;;;;;;4973287;28;20034;-37
2023/10/29 01:58:39;;;;;;;2.60;1.48;;;14.00;99.90;;;;;;4973621;28;20178;-37
2023/10/29 02:01:11;;;;;;;3.05;1.70;;;14.00;99.90;;;;;;4973940;28;20046;-37
2023/10/29 02:03:38;;;;;;;2.78;1.60;;;14.00;99.90;;;;;;4972577;28;20480;-37
2023/10/29 02:06:04;;;;;;;2.80;1.65;;;14.00;99.90;;;;;;4972533;28;20035;-37
2023/10/29 02:08:31;;;;;;;2.10;1.35;;;14.00;99.90;;;;;;4972755;28;20027;-37
2023/10/29 02:10:57;;;;;;;3.42;1.48;;;14.00;99.90;;;;;;4972402;28;20042;-38
2023/10/29 02:13:22;;;;;;;2.95;1.50;;;14.00;99.90;;;;;;4972409;28;20034;-37
2023/10/29 02:15:48;;;;;;;2.80;1.55;;;14.00;99.90;;;;;;4972390;28;20049;-37
2023/10/29 02:18:13;;;;;;;2.65;1.50;;;14.00;99.90;;;;;;4972313;28;20046;-37
2023/10/29 02:20:39;;;;;;;2.15;1.50;;;14.00;99.90;;;;;;4972231;28;20105;-37
2023/10/29 02:23:05;;;;;;;2.40;1.33;;;14.00;99.90;;;;;;4972190;28;20484;-37
2023/10/29 02:25:30;;;;;;;2.92;1.45;;;14.00;99.90;;;;;;4972358;28;20015;-37
2023/10/29 02:27:56;;;;;;;4.32;1.58;;;14.00;99.90;;;;;;4972285;28;20026;-37
2023/10/29 02:30:21;;;;;;;3.50;1.50;;;14.00;99.90;;;;;;4972566;28;20078;-37
2023/10/29 02:32:47;;;;;;;2.92;1.50;;;14.00;99.90;;;;;;4972321;28;20070;-37
2023/10/29 02:35:14;;;;;;;2.33;1.40;;;14.00;99.90;;;;;;4972109;28;20113;-37
2023/10/29 02:37:39;;;;;;;2.55;1.38;;;14.00;99.90;;;;;;4972404;28;20428;-37
2023/10/29 02:40:06;;;;;;;2.15;1.23;;;14.00;99.90;;;;;;4972278;28;20031;-37
2023/10/29 02:42:31;;;;;;;2.90;1.58;;;14.00;99.90;;;;;;4974166;28;20050;-37
2023/10/29 02:44:58;;;;;;;3.95;1.55;;;14.00;99.90;;;;;;4975563;28;20066;-37
2023/10/29 02:47:24;;;;;;;2.22;1.30;;;14.00;99.90;;;;;;4975456;28;20082;-37
2023/10/29 02:49:50;;;;;;;2.42;1.30;;;14.00;99.90;;;;;;4975605;28;20031;-37
2023/10/29 02:52:15;;;;;;;1.77;1.20;;;14.00;99.90;;;;;;4975559;28;20117;-37
2023/10/29 02:54:41;;;;;;;2.08;1.20;;;14.00;99.90;;;;;;4975687;28;20062;-37
2023/10/29 02:57:07;;;;;;;2.67;1.45;;;13.90;99.90;;;;;;4975528;28;20069;-37
2023/10/29 02:59:32;;;;;;;1.85;1.20;;;14.00;99.90;;;;;;4975655;28;20473;-37
2023/10/29 03:01:58;;;;;;;2.17;1.30;;;13.90;99.90;;;;;;4975425;28;20032;-37
2023/10/29 03:04:23;;;;;;;2.63;1.30;;;14.00;99.90;;;;;;4975236;28;20034;-37
2023/10/29 03:06:49;;;;;;;2.47;1.10;;;14.00;99.90;;;;;;4975386;28;20019;-37
2023/10/29 03:09:14;;;;;;;2.78;1.40;;;14.00;99.90;;;;;;4975625;28;20030;-37
2023/10/29 03:11:40;;;;;;;2.53;1.10;;;13.90;99.90;;;;;;4975319;28;20496;-37
2023/10/29 03:14:06;;;;;;;2.08;1.30;;;13.90;99.90;;;;;;4975271;28;20031;-37
2023/10/29 03:16:32;;;;;;;1.40;0.93;;;13.90;99.90;;;;;;4975325;28;20106;-37
2023/10/29 03:18:57;;;;;;;3.05;1.27;;;13.90;99.90;;;;;;4976018;28;20453;-37
2023/10/29 03:21:23;;;;;;;2.03;1.23;;;13.90;99.90;;;;;;4976201;28;20035;-37
2023/10/29 03:23:48;;;;;;;2.00;1.30;;;13.90;99.90;;;;;;4976082;28;20037;-37
2023/10/29 03:26:14;;;;;;;2.15;1.25;;;13.90;99.90;;;;;;4975774;28;20027;-37
2023/10/29 03:28:41;;;;;;;2.15;1.15;;;13.90;99.90;;;;;;4975978;28;20542;-37
2023/10/29 03:31:14;;;;;;;1.73;1.10;;;13.90;99.90;;;;;;4975711;28;20034;-37
2023/10/29 03:33:40;;;;;;;1.95;1.10;;;13.90;99.90;;;;;;4975800;28;20039;-37
2023/10/29 03:36:07;;;;;;;2.38;1.23;;;13.90;99.90;;;;;;4976129;28;20035;-37
2023/10/29 03:38:33;;;;;;;2.50;1.00;;;13.90;99.90;;;;;;4974317;28;20472;-37
2023/10/29 03:40:58;;;;;;;2.15;1.13;;;13.90;99.90;;;;;;4974756;28;20030;-37
2023/10/29 03:43:24;;;;;;;2.25;1.00;;;13.90;99.90;;;;;;4974921;28;20066;-37
2023/10/29 03:45:50;;;;;;;2.50;1.40;;;13.90;99.90;;;;;;4974371;28;20023;-37
2023/10/29 03:48:15;;;;;;;2.28;1.20;;;13.90;99.90;;;;;;4974179;28;20109;-37
2023/10/29 03:50:42;;;;;;;1.15;0.82;;;13.90;99.90;;;;;;4974447;28;20302;-37
2023/10/29 03:53:08;;;;;;;2.80;1.40;;;13.90;99.90;;;;;;4973856;28;20034;-37
2023/10/29 03:55:36;;;;;;;1.58;0.93;;;13.90;99.90;;;;;;4974293;28;20546;-37
2023/10/29 03:58:03;;;;;;;2.25;0.90;;;13.90;99.90;;;;;;4974327;28;20023;-37
2023/10/29 04:00:29;;;;;;;4.38;1.13;;;13.90;99.90;;;;;;4974250;28;20031;-37
2023/10/29 04:02:55;;;;;;;2.35;1.10;;;13.90;99.90;;;;;;4974121;28;20511;-37
2023/10/29 04:05:21;;;;;;;1.83;0.93;;;13.90;99.90;;;;;;4973996;28;20031;-37
2023/10/29 04:07:48;;;;;;;1.98;1.08;;;13.90;99.90;;;;;;4974165;28;20121;-37
2023/10/29 04:10:14;;;;;;;1.67;1.05;;;13.90;99.90;;;;;;4974103;28;20158;-37
2023/10/29 04:12:40;;;;;;;2.03;1.17;;;13.90;99.90;;;;;;4974063;28;20106;-37
2023/10/29 04:15:05;;;;;;;1.98;1.20;;;13.90;99.90;;;;;;4973909;28;20105;-37
2023/10/29 04:17:32;;;;;;;1.23;0.90;;;13.90;99.90;;;;;;4973800;28;20027;-37
2023/10/29 04:19:58;;;;;;;1.88;0.98;;;13.90;99.90;;;;;;4973932;28;20015;-37
2023/10/29 04:22:24;;;;;;;2.03;1.00;;;13.90;99.90;;;;;;4974252;28;20081;-37
2023/10/29 04:24:50;;;;;;;1.65;0.93;;;13.90;99.90;;;;;;4973907;28;20476;-37
2023/10/29 04:27:15;;;;;;;1.65;1.10;;;13.90;99.90;;;;;;4973938;28;20416;-37
2023/10/29 04:29:41;;;;;;;1.83;1.17;;;13.90;99.90;;;;;;4973589;28;20027;-37
2023/10/29 04:32:07;;;;;;;1.77;0.80;;;13.90;99.90;;;;;;4973692;28;20026;-37
2023/10/29 04:34:33;;;;;;;1.23;0.90;;;13.90;99.90;;;;;;4973614;28;20030;-37
2023/10/29 04:36:59;;;;;;;1.55;1.00;;;13.90;99.90;;;;;;4973384;28;20026;-37
2023/10/29 04:39:25;;;;;;;1.35;0.95;;;13.90;99.90;;;;;;4973630;28;20062;-37
2023/10/29 04:41:50;;;;;;;1.45;1.00;;;13.90;99.90;;;;;;4973533;28;20464;-37
2023/10/29 04:44:16;;;;;;;1.27;0.98;;;13.90;99.90;;;;;;4973307;28;20031;-37
2023/10/29 04:46:42;;;;;;;1.73;0.98;;;13.90;99.90;;;;;;4973635;28;20491;-37
2023/10/29 04:49:08;;;;;;;2.83;1.10;;;13.90;99.90;;;;;;4973364;28;20031;-37
2023/10/29 04:51:34;;;;;;;1.80;0.95;;;13.90;99.90;;;;;;4973366;28;20049;-37
2023/10/29 04:54:00;;;;;;;2.13;1.20;;;13.90;99.90;;;;;;4973308;28;20022;-37
2023/10/29 04:56:26;;;;;;;1.05;0.80;;;13.90;99.90;;;;;;4973132;28;20057;-37
2023/10/29 04:58:52;;;;;;;2.10;0.90;;;13.90;99.90;;;;;;4972977;28;20389;-37
2023/10/29 05:01:18;;;;;;;3.53;1.00;;;13.90;99.90;;;;;;4973140;28;20037;-37
2023/10/29 05:03:44;;;;;;;1.65;0.88;;;13.90;99.90;;;;;;4973096;28;20027;-37
2023/10/29 05:06:18;;;;;;;1.60;1.00;;;13.90;99.90;;;;;;4972217;28;20023;-37
2023/10/29 05:08:43;;;;;;;1.95;1.27;;;13.90;99.90;;;;;;4973147;28;20033;-37
2023/10/29 05:11:10;;;;;;;2.45;1.35;;;13.90;99.90;;;;;;4972996;28;20027;-37
2023/10/29 05:13:35;;;;;;;3.38;1.55;;;13.90;99.90;;;;;;4972875;28;20502;-37
2023/10/29 05:16:01;;;;;;;4.28;1.58;;;13.90;99.90;;;;;;4972858;28;20035;-37
2023/10/29 05:18:27;;;;;;;2.58;1.27;;;13.90;99.90;;;;;;4973044;28;20031;-37
2023/10/29 05:20:53;;;;;;;3.40;1.30;;;13.80;99.90;;;;;;4972898;28;20031;-37
2023/10/29 05:23:18;;;;;;;2.45;1.23;;;13.90;99.90;;;;;;4972865;28;20038;-37
2023/10/29 05:25:44;;;;;;;2.53;1.20;;;13.80;99.90;;;;;;4972724;28;20127;-37
2023/10/29 05:28:10;;;;;;;1.75;1.13;;;13.80;99.90;;;;;;4972520;28;20369;-37
2023/10/29 05:30:36;;;;;;;1.80;1.20;;;13.90;99.90;;;;;;4972752;28;20528;-37
2023/10/29 05:33:02;;;;;;;1.63;1.15;;;13.80;99.90;;;;;;4973203;28;20122;-37
2023/10/29 05:35:27;;;;;;;2.60;1.30;;;13.90;99.90;;;;;;4972613;28;20027;-37
2023/10/29 05:37:53;;;;;;;2.75;1.20;;;13.80;99.90;;;;;;4972509;28;20062;-37
2023/10/29 05:40:19;;;;;;;1.98;1.35;;;13.80;99.90;;;;;;4973285;28;20031;-37
2023/10/29 05:42:45;;;;;;;2.35;1.20;;;13.90;99.90;;;;;;4972393;28;20033;-37
2023/10/29 05:45:10;;;;;;;1.30;0.90;;;13.80;99.90;;;;;;4972525;28;20484;-37
2023/10/29 05:47:36;;;;;;;2.47;1.38;;;13.90;99.90;;;;;;4972299;28;20066;-37
2023/10/29 05:50:04;;;;;;;2.03;1.30;;;13.90;99.90;;;;;;4972530;28;20027;-37
2023/10/29 05:52:30;;;;;;;2.45;1.20;;;13.80;99.90;;;;;;4972515;28;20036;-37
2023/10/29 05:54:56;;;;;;;2.53;1.20;;;13.80;99.90;;;;;;4972462;28;20523;-37
2023/10/29 05:57:22;;;;;;;1.90;0.98;;;13.90;99.90;;;;;;4972287;28;20062;-37
2023/10/29 05:59:48;;;;;;;2.00;1.40;;;13.90;99.90;;;;;;4972522;28;20054;-37
2023/10/29 06:02:14;;;;;;;1.88;1.33;;;13.80;99.90;;;;;;4972609;28;20027;-37
2023/10/29 06:04:40;;;;;;;1.95;1.20;;;13.80;99.90;;;;;;4972363;28;20552;-37
2023/10/29 06:07:07;;;;;;;2.22;1.20;;;13.90;99.90;;;;;;4972135;28;20023;-37
2023/10/29 06:09:33;;;;;;;2.15;1.10;;;13.80;99.90;;;;;;4972371;28;20027;-37
2023/10/29 06:11:58;;;;;;;2.00;1.20;;;13.90;99.90;;;;;;4972196;28;20027;-37
2023/10/29 06:14:24;;;;;;;2.33;1.33;;;13.90;99.90;;;;;;4972582;28;20060;-37
2023/10/29 06:16:57;;;;;;;1.50;1.10;;;13.90;99.90;;;;;;4973368;28;20078;-37
2023/10/29 06:19:23;;;;;;;2.00;1.15;;;13.90;99.90;;;;;;4976313;28;20146;-37
2023/10/29 06:21:49;;;;;;;2.13;1.30;;;13.90;99.90;;;;;;4976128;28;20037;-37
2023/10/29 06:24:15;;;;;;;2.30;1.02;;;13.80;99.90;;;;;;4976430;28;20023;-37
2023/10/29 06:26:40;;;;;;;1.48;0.95;;;13.80;99.90;;;;;;4975904;28;20042;-37
2023/10/29 06:29:09;;;;;;;2.90;1.30;;;13.90;99.90;;;;;;4975954;28;20030;-37
2023/10/29 06:31:35;;;;;;;1.88;1.00;;;13.80;99.90;;;;;;4975957;28;20101;-37
2023/10/29 06:34:01;;;;;;;1.80;1.20;;;13.90;99.90;;;;;;4975910;28;20029;-37
2023/10/29 06:36:28;;;;;;;2.50;1.00;;;13.90;99.90;;;;;;4975628;28;20053;-37
2023/10/29 06:38:55;;;;;;;1.23;0.90;;;13.90;99.90;;;;;;4976074;28;20042;-37
2023/10/29 06:41:20;;;;;;;1.83;1.00;;;13.90;99.90;;;;;;4975681;28;20584;-37
2023/10/29 06:43:46;;;;;;;2.17;1.02;;;13.90;99.90;;;;;;4976003;28;20138;-37
2023/10/29 06:46:12;;;;;;;1.75;1.23;;;13.80;99.90;;;;;;4975450;28;20026;-37
2023/10/29 06:48:41;;;;;;;1.60;1.00;;;13.90;99.90;;;;;;4975404;28;20101;-37
2023/10/29 06:51:10;;;;;;;1.70;1.10;;;13.90;99.90;;;;;;4975537;28;20023;-37
2023/10/29 06:53:37;;;;;;;1.85;1.00;;;13.90;99.90;;;;;;4975482;28;20034;-37
2023/10/29 06:56:03;;;;;;;1.30;1.00;;;13.90;99.90;;;;;;4975404;28;20550;-37
2023/10/29 06:58:29;;;;;;;1.48;1.08;;;13.90;99.90;;;;;;4975451;28;20034;-37
2023/10/29 07:00:54;;;;;;;1.55;1.00;;;13.90;99.90;;;;;;4975349;28;20031;-37
2023/10/29 07:03:20;;;;;;;1.65;1.08;;;13.90;99.90;;;;;;4975684;28;20070;-37
2023/10/29 07:05:45;;;;;;;2.13;1.08;;;13.90;99.90;;;;;;4975299;28;20034;-37
2023/10/29 07:08:11;;;;;;;1.70;0.90;;;13.90;99.90;;;;;;4975021;28;20022;-37
2023/10/29 07:10:36;;;;;;;1.55;1.10;;;13.90;99.90;;;;;;4973882;28;20023;-37
2023/10/29 07:13:03;;;;;;;1.42;1.00;;;13.90;99.90;;;;;;4975383;28;20026;-37
2023/10/29 07:15:28;;;;;;;1.85;1.02;;;13.90;99.90;;;;;;4975057;28;20039;-37
2023/10/29 07:17:55;;;;;;;1.42;1.00;;;13.90;99.90;;;;;;4974936;28;20046;-37
2023/10/29 07:20:20;;;;;;;2.20;0.98;;;13.90;99.90;;;;;;4975129;28;20019;-37
2023/10/29 07:22:46;;;;;;;2.30;0.98;;;13.90;99.90;;;;;;4975352;28;20019;-37
2023/10/29 07:25:12;;;;;;;1.92;1.02;;;13.90;99.90;;;;;;4974837;28;20106;-37
2023/10/29 07:27:38;;;;;;;1.50;1.00;;;13.90;99.90;;;;;;4974559;28;20361;-37
2023/10/29 07:30:04;;;;;;;1.15;0.90;;;13.90;99.90;;;;;;4974239;28;20519;-37
2023/10/29 07:32:30;;;;;;;1.30;0.90;;;13.90;99.90;;;;;;4974904;28;20026;-37
2023/10/29 07:34:56;;;;;;;2.03;0.90;;;13.90;99.90;;;;;;4975143;28;20392;-37
2023/10/29 07:37:21;;;;;;;1.58;0.82;;;13.90;99.90;;;;;;4974520;28;20393;-37
2023/10/29 07:39:47;;;;;;;1.55;0.98;;;13.90;99.90;;;;;;4974670;28;20520;-37
2023/10/29 07:42:13;;;;;;;1.00;0.90;;;13.90;99.90;;;;;;4974574;28;20034;-37
2023/10/29 07:44:38;;;;;;;1.10;0.90;;;13.90;99.90;;;;;;4974523;28;20038;-37
2023/10/29 07:47:08;;;;;;;1.40;0.90;;;13.90;99.90;;;;;;4974770;28;20127;-38
2023/10/29 07:49:37;;;;;;;1.05;0.80;;;13.90;99.90;;;;;;4974796;28;20097;-39
2023/10/29 07:52:04;;;;;;;1.25;0.70;;;13.90;99.90;;;;;;4974882;28;20496;-38
2023/10/29 07:54:29;;;;;;;0.88;0.70;;;13.90;99.90;;;;;;4974645;28;20059;-41
2023/10/29 07:56:55;;;;;;;1.67;0.90;;;13.90;99.90;;;;;;4974318;28;20608;-40
2023/10/29 07:59:21;;;;;;;3.53;1.30;;;13.90;99.90;;;;;;4973174;28;20476;-37
2023/10/29 08:01:46;;;;;;;1.88;0.80;;;13.90;99.90;;;;;;4974437;28;20019;-39
2023/10/29 08:04:12;;;;;;;1.10;0.80;;;13.90;99.90;;;;;;4974359;28;20045;-37
2023/10/29 08:06:38;;;;;;;2.72;1.00;;;14.00;99.90;;;;;;4974082;28;20023;-40
2023/10/29 08:09:03;;;;;;;1.35;0.88;;;13.90;99.90;;;;;;4974139;28;20042;-39
2023/10/29 08:11:29;;;;;;;1.52;0.80;;;13.90;99.90;;;;;;4974204;28;20098;-40
2023/10/29 08:13:56;;;;;;;0.90;0.70;;;14.00;99.90;;;;;;4974336;28;20031;-39
2023/10/29 08:16:22;;;;;;;1.05;0.75;;;13.90;99.90;;;;;;4974271;28;20118;-38
2023/10/29 08:18:48;;;;;;;1.33;0.98;;;14.00;99.90;;;;;;4974076;28;20098;-39
2023/10/29 08:21:15;;;;;;;1.58;1.05;;;14.00;99.90;;;;;;4974123;28;20081;-39
2023/10/29 08:23:40;;;;;;;2.13;0.70;;;14.00;99.90;;;;;;4974172;28;20031;-40
2023/10/29 08:26:06;;;;;;;1.90;1.00;;;14.00;99.90;;;;;;4973868;28;20029;-39
2023/10/29 08:28:32;;;;;;;1.42;0.93;;;14.00;99.90;;;;;;4973845;28;20022;-39
2023/10/29 08:30:57;;;;;;;1.70;1.00;;;13.90;99.90;;;;;;4973957;28;20034;-38
2023/10/29 08:33:23;;;;;;;1.85;1.10;;;13.90;99.90;;;;;;4973782;28;20035;-38
2023/10/29 08:35:49;;;;;;;2.03;1.25;;;14.00;99.90;;;;;;4974130;28;20031;-39
2023/10/29 08:38:14;;;;;;;1.52;0.98;;;14.00;99.90;;;;;;4973610;28;20026;-39
2023/10/29 08:40:40;;;;;;;1.58;0.90;;;14.00;99.90;;;;;;4973405;28;20062;-38
2023/10/29 08:43:06;;;;;;;1.67;0.88;;;13.90;99.90;;;;;;4973573;28;20062;-38
2023/10/29 08:45:32;;;;;;;1.33;0.98;;;13.90;99.90;;;;;;4973710;28;20019;-38
2023/10/29 08:47:58;;;;;;;1.83;0.85;;;13.90;99.90;;;;;;4973283;28;20094;-39
2023/10/29 08:50:23;;;;;;;1.63;0.95;;;13.90;99.90;;;;;;4973517;28;20089;-37
2023/10/29 08:52:49;;;;;;;1.48;0.90;;;13.90;99.90;;;;;;4973641;28;20111;-39
2023/10/29 08:55:15;;;;;;;1.60;0.90;;;13.90;99.90;;;;;;4973342;28;20396;-38
2023/10/29 08:57:41;;;;;;;1.55;1.02;;;13.90;99.90;;;;;;4972013;28;20478;-39
2023/10/29 09:00:07;;;;;;;1.40;1.00;;;13.90;99.90;;;;;;4973543;28;20082;-40
2023/10/29 09:02:32;;;;;;;1.42;0.93;;;13.90;99.90;;;;;;4973779;28;20031;-38
2023/10/29 09:04:58;;;;;;;2.15;1.08;;;13.90;99.90;;;;;;4972911;28;20458;-41
2023/10/29 09:07:25;;;;;;;2.55;1.38;;;13.90;99.90;;;;;;4972992;28;20034;-37
2023/10/29 09:09:52;;;;;;;1.40;0.80;;;13.90;99.90;;;;;;4973186;28;20429;-39
2023/10/29 09:12:18;;;;;;;1.20;0.90;;;13.90;99.90;;;;;;4973446;28;20031;-39
2023/10/29 09:14:44;;;;;;;1.33;0.93;;;13.90;99.90;;;;;;4973262;28;20077;-37
2023/10/29 09:17:10;;;;;;;1.33;1.00;;;13.90;99.90;;;;;;4972977;28;20034;-38
2023/10/29 09:19:35;;;;;;;2.17;1.23;;;14.00;99.90;;;;;;4973037;28;20098;-42
2023/10/29 09:22:01;;;;;;;1.23;0.90;;;14.00;99.90;;;;;;4973206;28;20046;-38
2023/10/29 09:24:27;;;;;;;1.90;0.98;;;14.00;99.90;;;;;;4972791;28;20062;-39
2023/10/29 09:26:53;;;;;;;1.27;1.00;;;14.00;99.90;;;;;;4972740;28;20023;-39
2023/10/29 09:29:19;;;;;;;2.40;1.30;;;14.00;99.90;;;;;;4972994;28;20381;-41
2023/10/29 09:31:45;;;;;;;1.25;1.00;;;14.00;99.90;;;;;;4972794;28;20023;-38
2023/10/29 09:34:11;;;;;;;1.67;1.02;;;14.00;99.90;;;;;;4972859;28;20108;-38
2023/10/29 09:36:38;;;;;;;1.85;1.08;;;14.00;99.90;;;;;;4972762;28;20054;-38
2023/10/29 09:39:04;;;;;;;1.50;0.90;;;14.00;99.90;;;;;;4972777;28;20027;-39
2023/10/29 09:41:31;;;;;;;1.23;1.05;;;14.00;99.90;;;;;;4972998;28;20396;-40
2023/10/29 09:43:59;;;;;;;1.50;1.10;;;14.00;99.90;;;;;;4972781;28;20113;-39
2023/10/29 09:46:29;;;;;;;1.33;1.00;;;14.00;99.90;;;;;;4972497;28;20018;-38
2023/10/29 09:48:56;;;;;;;1.48;1.00;;;14.00;99.90;;;;;;4972681;28;20472;-38
2023/10/29 09:51:22;;;;;;;1.65;1.10;;;14.00;99.90;;;;;;4974577;28;20030;-39
2023/10/29 09:53:51;;;;;;;1.85;1.00;;;14.00;99.90;;;;;;4979046;28;20023;-40
2023/10/29 09:56:17;;;;;;;1.45;0.85;;;14.00;99.90;;;;;;4979036;28;20499;-41
2023/10/29 09:58:43;;;;;;;1.20;0.90;;;14.00;99.90;;;;;;4979128;28;20023;-38
2023/10/29 10:01:08;;;;;;;1.23;1.00;;;14.00;99.90;;;;;;4979105;28;20443;-40
2023/10/29 10:03:35;;;;;;;1.45;0.98;;;14.00;99.90;;;;;;4979386;28;20035;-41
2023/10/29 10:06:01;;;;;;;2.38;1.38;;;14.00;99.90;;;;;;4978879;28;20042;-43
2023/10/29 10:08:28;;;;;;;1.50;0.93;;;14.00;99.90;;;;;;4978754;28;20019;-40
2023/10/29 10:10:55;;;;;;;1.77;1.10;;;14.00;99.90;;;;;;4979028;28;20114;-39
2023/10/29 10:13:36;;;;;;;2.97;1.27;;;14.00;99.90;;;;;;4978925;28;20033;-39
2023/10/29 10:16:10;;;;;;;4.53;1.25;;;14.00;99.90;;;;;;4978922;28;20035;-42
2023/10/29 10:18:48;;;;;;;2.33;1.30;;;14.00;99.90;;;;;;4979208;28;20038;-41
2023/10/29 10:21:14;;;;;;;3.85;1.15;;;14.00;99.90;;;;;;4979392;28;20101;-37
2023/10/29 10:23:54;;;;;;;2.47;1.30;;;14.10;99.90;;;;;;4978941;28;20034;-39
2023/10/29 10:26:28;;;;;;;3.13;1.42;;;14.10;99.90;;;;;;4978811;28;20047;-39
2023/10/29 10:28:55;;;;;;;2.45;1.27;;;14.10;99.90;;;;;;4979000;28;20567;-40
2023/10/29 10:31:21;;;;;;;2.63;1.10;;;14.10;99.90;;;;;;4979175;28;20050;-44
2023/10/29 10:33:48;;;;;;;2.00;1.23;;;14.10;99.90;;;;;;4979015;28;20061;-41
2023/10/29 10:36:14;;;;;;;2.08;1.15;;;14.10;99.90;;;;;;4978586;28;20029;-40
2023/10/29 10:38:52;;;;;;;2.25;0.98;;;14.10;99.90;;;;;;4978804;28;20023;-39
2023/10/29 10:41:18;;;;;;;1.83;1.00;;;14.10;99.90;;;;;;4981572;28;20089;-40
2023/10/29 10:43:43;;;;;;;2.40;1.33;;;14.10;99.90;;;;;;4979198;28;20468;-42
2023/10/29 10:46:12;;;;;;;2.85;1.30;;;14.10;99.90;;;;;;4978661;28;20026;-45
2023/10/29 10:48:41;;;;;;;2.47;1.27;;;14.20;99.90;;;;;;4978703;28;20030;-40
2023/10/29 10:51:11;;;;;;;3.85;1.20;;;14.10;99.90;;;;;;4978430;28;20053;-39
2023/10/29 10:53:38;;;;;;;1.83;1.13;;;14.20;99.90;;;;;;4978595;28;20042;-37
2023/10/29 10:56:08;;;;;;;4.30;1.10;;;14.20;99.90;;;;;;4978593;28;20035;-40
2023/10/29 10:58:35;;;;;;;2.47;1.08;;;14.20;99.90;;;;;;4978613;28;20069;-42
2023/10/29 11:01:02;;;;;;;2.70;1.35;;;14.20;99.90;;;;;;4978772;28;20052;-40
2023/10/29 11:03:32;;;;;;;3.20;1.15;;;14.20;99.90;;;;;;4977083;28;20536;-39
2023/10/29 11:05:58;;;;;;;2.67;1.00;;;14.20;99.90;;;;;;4975178;28;20085;-41
2023/10/29 11:08:24;;;;;;;4.13;1.10;;;14.20;99.90;;;;;;4975489;28;20027;-40
2023/10/29 11:10:50;;;;;;;2.42;1.17;;;14.10;99.90;;;;;;4975946;28;20027;-39
2023/10/29 11:13:20;;;;;;;1.58;0.85;;;14.20;99.90;;;;;;4975530;28;20026;-39
2023/10/29 11:15:49;;;;;;;1.63;1.02;;;14.20;99.90;;;;;;4975943;28;20429;-43
2023/10/29 11:18:31;;;;;;;2.05;1.02;;;14.20;99.90;;;;;;4975010;28;20023;-42
2023/10/29 11:21:03;;;;;;;2.53;1.02;;;14.10;99.90;;;;;;4975228;28;20027;-40
2023/10/29 11:23:29;;;;;;;2.15;1.15;;;14.10;99.90;;;;;;4975140;28;20362;-41
2023/10/29 11:26:20;;;;;;;1.83;1.08;;;14.20;99.90;;;;;;4975032;28;20522;-39
2023/10/29 11:28:47;;;;;;;2.05;1.00;;;14.10;99.90;;;;;;4974943;28;20038;-40
2023/10/29 11:31:16;;;;;;;2.10;1.10;;;14.20;99.90;;;;;;4974979;28;20027;-39
2023/10/29 11:34:08;;;;;;;1.70;1.00;;;14.20;99.90;;;;;;4975112;28;20409;-42
2023/10/29 11:36:38;;;;;;;2.42;0.93;;;14.20;99.90;;;;;;4974736;28;20063;-37
2023/10/29 11:39:15;;;;;;;1.80;1.02;;;14.20;99.90;;;;;;4974602;28;20235;-39
2023/10/29 11:41:46;;;;;;;2.70;1.30;;;14.20;99.90;;;;;;4974579;28;20055;-40
2023/10/29 11:44:25;;;;;;;1.60;0.73;;;14.20;99.90;;;;;;4974766;28;20022;-40
2023/10/29 11:47:03;;;;;;;1.67;1.00;;;14.20;99.90;;;;;;4974264;28;20050;-40
2023/10/29 11:49:30;;;;;;;1.77;1.00;;;14.20;99.90;;;;;;4974475;28;20031;-40
2023/10/29 11:52:01;;;;;;;1.92;1.10;;;14.20;99.90;;;;;;4974853;28;20034;-40
2023/10/29 11:54:27;;;;;;;2.13;1.30;;;14.20;99.90;;;;;;4974735;28;20030;-40
2023/10/29 11:56:54;;;;;;;1.50;1.05;;;14.20;99.90;;;;;;4974579;28;20034;-43
2023/10/29 11:59:19;;;;;;;2.05;1.23;;;14.30;99.90;;;;;;4974827;28;20042;-40
2023/10/29 12:01:45;;;;;;;1.20;0.82;;;14.30;99.90;;;;;;4974516;28;20035;-39
2023/10/29 12:04:14;;;;;;;3.03;0.85;;;14.40;99.90;;;;;;4974363;28;20023;-40
2023/10/29 12:06:42;;;;;;;1.80;1.10;;;14.40;99.90;;;;;;4974598;28;20070;-39
2023/10/29 12:09:25;;;;;;;3.00;1.20;;;14.50;99.90;;;;;;4974324;28;20408;-42
2023/10/29 12:11:52;;;;;;;1.88;1.10;;;14.60;99.90;;;;;;4974470;28;20033;-38
2023/10/29 12:14:43;;;;;;;2.42;1.35;;;14.60;99.90;;;;;;4973913;28;20027;-40
2023/10/29 12:17:10;;;;;;;1.40;0.85;;;14.60;99.90;;;;;;4974041;28;20489;-40
2023/10/29 12:19:41;;;;;;;1.63;0.98;;;14.70;99.90;;;;;;4974157;28;20597;-40
2023/10/29 12:22:21;;;;;;;1.95;1.10;;;14.70;99.90;;;;;;4974256;28;20445;-40
2023/10/29 12:24:50;;;;;;;2.55;1.45;;;14.80;99.90;;;;;;4973994;28;20030;-38
2023/10/29 12:27:16;;;;;;;1.33;0.98;;;14.80;99.90;;;;;;4973762;28;20030;-41
2023/10/29 12:29:42;;;;;;;1.70;0.98;;;14.80;99.90;;;;;;4973826;28;20496;-43
2023/10/29 12:32:18;;;;;;;2.78;1.10;;;14.90;99.90;;;;;;4973479;28;20030;-40
2023/10/29 12:34:51;;;;;;;2.20;1.08;;;14.90;99.90;;;;;;4973693;28;20111;-40
2023/10/29 12:37:30;;;;;;;2.15;1.15;;;14.90;99.90;;;;;;4973445;28;20047;-40
2023/10/29 12:40:00;;;;;;;1.50;0.80;;;14.90;99.90;;;;;;4973748;28;20027;-39
2023/10/29 12:42:49;;;;;;;2.08;0.85;;;14.90;99.90;;;;;;4973983;28;20117;-38
2023/10/29 12:45:25;;;;;;;3.42;0.77;;;14.90;99.90;;;;;;4973421;28;20023;-39
2023/10/29 12:48:10;;;;;;;1.73;0.75;;;14.90;99.90;;;;;;4971876;28;20027;-39